TimeCDT,TemperatureF,Dew PointF,Humidity,Sea Level PressureIn,VisibilityMPH,Wind Direction,Wind SpeedMPH,Gust SpeedMPH,PrecipitationIn,Events,Conditions,WindDirDegrees,DateUTC
12:58 AM,75.6,73.8,94,30.17,10.0,ESE,5.8,-,N/A,,Partly Cloudy,110,2013-07-15 05:58:00
1:58 AM,74.3,74.3,100,30.17,10.0,East,8.1,-,N/A,,Mostly Cloudy,80,2013-07-15 06:58:00
2:58 AM,73.9,73.9,100,30.16,10.0,East,4.6,-,N/A,,Clear,80,2013-07-15 07:58:00
3:58 AM,73.0,73.0,100,30.17,10.0,East,5.8,-,N/A,,Clear,90,2013-07-15 08:58:00
4:58 AM,73.0,73.0,100,30.19,10.0,East,5.8,-,N/A,,Clear,100,2013-07-15 09:58:00
5:58 AM,72.5,72.5,100,30.21,10.0,East,4.6,-,N/A,,Clear,80,2013-07-15 10:58:00
6:58 AM,74.8,73.2,95,30.23,10.0,East,4.6,-,N/A,,Clear,90,2013-07-15 11:58:00
7:58 AM,78.1,72.0,81,30.24,10.0,SE,8.1,-,N/A,,Clear,130,2013-07-15 12:58:00
8:58 AM,80.2,71.2,74,30.24,10.0,SSE,10.4,-,N/A,,Partly Cloudy,150,2013-07-15 13:58:00
9:16 AM,80.6,71.6,74,30.25,10.0,SE,12.7,-,N/A,,Mostly Cloudy,140,2013-07-15 14:16:00
9:48 AM,82.4,71.6,70,30.26,10.0,SSE,11.5,-,N/A,,Mostly Cloudy,150,2013-07-15 14:48:00
9:49 AM,82.4,71.6,70,30.26,10.0,SSE,11.5,-,N/A,,Mostly Cloudy,160,2013-07-15 14:49:00
9:52 AM,82.4,71.6,70,30.26,10.0,SSE,10.4,-,N/A,,Scattered Clouds,160,2013-07-15 14:52:00
9:54 AM,82.4,71.6,70,30.26,10.0,South,9.2,-,N/A,,Mostly Cloudy,180,2013-07-15 14:54:00
9:58 AM,81.7,71.4,71,30.25,10.0,South,9.2,-,N/A,,Mostly Cloudy,170,2013-07-15 14:58:00
10:11 AM,82.4,71.6,70,30.26,10.0,SSE,10.4,-,N/A,,Mostly Cloudy,160,2013-07-15 15:11:00
10:12 AM,82.4,71.6,70,30.26,10.0,South,8.1,-,N/A,,Mostly Cloudy,170,2013-07-15 15:12:00
10:19 AM,82.4,71.6,70,30.26,10.0,SE,10.4,-,N/A,,Mostly Cloudy,140,2013-07-15 15:19:00
10:20 AM,82.4,71.6,70,30.26,10.0,SSE,11.5,-,N/A,,Mostly Cloudy,160,2013-07-15 15:20:00
10:21 AM,82.4,71.6,70,30.26,10.0,South,11.5,-,N/A,,Mostly Cloudy,170,2013-07-15 15:21:00
10:26 AM,82.4,71.6,70,30.26,10.0,South,10.4,-,N/A,,Mostly Cloudy,180,2013-07-15 15:26:00
10:27 AM,82.4,71.6,70,30.26,10.0,South,8.1,-,N/A,,Mostly Cloudy,170,2013-07-15 15:27:00
10:58 AM,82.6,71.2,68,30.26,10.0,South,10.4,-,N/A,,Mostly Cloudy,180,2013-07-15 15:58:00
11:58 AM,82.8,70.9,67,30.25,10.0,SSE,9.2,-,N/A,,Mostly Cloudy,150,2013-07-15 16:58:00
12:58 PM,83.7,71.6,67,30.24,10.0,East,6.9,-,N/A,,Mostly Cloudy,100,2013-07-15 17:58:00
1:58 PM,85.1,71.2,63,30.23,10.0,ESE,8.1,-,N/A,,Mostly Cloudy,120,2013-07-15 18:58:00
2:58 PM,85.1,70.0,60,30.21,10.0,Variable,5.8,-,N/A,,Scattered Clouds,0,2013-07-15 19:58:00
3:58 PM,88.0,69.6,54,30.20,10.0,ESE,11.5,16.1,N/A,,Partly Cloudy,120,2013-07-15 20:58:00
4:58 PM,86.7,69.3,56,30.19,10.0,ESE,9.2,-,N/A,,Partly Cloudy,120,2013-07-15 21:58:00
5:58 PM,86.4,68.9,56,30.19,10.0,SE,8.1,-,N/A,,Partly Cloudy,130,2013-07-15 22:58:00
6:58 PM,86.2,68.4,55,30.20,10.0,ESE,8.1,-,N/A,,Clear,120,2013-07-15 23:58:00
7:58 PM,83.8,69.1,61,30.21,10.0,East,3.5,-,N/A,,Clear,100,2013-07-16 00:58:00
8:21 PM,82.4,69.8,66,30.22,10.0,East,2.3,-,N/A,,Light Drizzle,100,2013-07-16 01:21:00
8:32 PM,82.4,69.8,66,30.22,10.0,East,2.3,-,N/A,,Clear,80,2013-07-16 01:32:00
8:58 PM,79.7,69.3,70,30.23,10.0,ENE,2.3,-,0.00,,Clear,70,2013-07-16 01:58:00
9:58 PM,77.5,70.2,78,30.24,10.0,NE,2.3,-,N/A,,Clear,50,2013-07-16 02:58:00
10:58 PM,75.0,71.8,90,30.25,10.0,NE,3.5,-,N/A,,Clear,50,2013-07-16 03:58:00
11:58 PM,73.9,71.6,92,30.25,10.0,East,3.5,-,N/A,,Clear,80,2013-07-16 04:58:00